Portada
METAR-TAF:

METAR-TAF

Aeroports :

Billy Mitchell Airport

Hatteras, Carolina del Nord, Estats Units d'Amèrica

latitud: 35-13-56N, longitud: 075-37-21W, altitud: 5 m

Observació

L'informe es va fer fa 47 minuts, a les 21:51 UTC
Vent 9 kt del Nord/Nord-Est amb ràfegues de 15 kt
Temperatura 5°C
Humitat 65%
Pressió 1028 hPa
Visibilitat: 16.1 km
Cel ennuvolat a una alçada de 3500 ft

METAR: KHSE 132151Z AUTO 02009G15KT 10SM BKN035 05/M01 A3037 RMK AO2 SLP284 T00501011

Hora: 17:38 (22:38 UTC)


TAF: manca

Observacions i pronòstics meteorològics de més de 4000 aeroports (METAR i TAF).

Les estacions disponibles són els punts grocs i vermells al mapa.

Posi el ratolí al punt desitjat per veure el nom de l'estació.

Feu clic per veure les observacions i els pronòstics meteorològics.

Per canviar el mapa: feu clic els botons verds amb una creu de color negre per apropar; al botó verd amb un guió per allunyar la imatge; o en les fletxes verdes per a mapes adjacents.


METAR-TAF: